Abney, South Carolina
Current Conditions -  °F | °C
As of 11:15 AM on Thursday 30 Oct 2014 (Local Time) from KCDN Reporting Station
Clear Clear  
Wind Chill: 63°   Ceiling: Unl
Heat Index: 63°   Visibility: 10mi
Dew Point: 45°   Wind: 13mph
Humidity: 52%   Direction: 40°NE
Pressure: 30.06"   Gusts: 18mph
Location:  34.5438°N, 80.5351°W
Report Text: KCDN 301515Z AUTO 04011G16KT 10SM CLR 17/07 A3006 RMK AO2 TSNO
Loading
Personal Weather Stations






























Interactive Weather Map
Tropical Storm Tracking
New forecast layout! Learn more

10-Day Weather Forecast

Advertisements
Track Severe Weather on mobile